Terminal Aerodrome Forecast
Issued by NWS

Home | Current Version | Previous Version | Text Only | Print | Product List | Glossary On
Versions: 1 2 3 4 5 6 7 8 9 10 11 12 13 14 15 16 17 18 19 20 21 22 23 24 25 26 27 28
000
FTUS41 KBUF 310901 AAA
TAFJHW
TAF AMD
KJHW 310901Z 3109/0106 12004KT P6SM SCT012 BKN040
     FM311400 19004KT P6SM BKN025
     FM311700 VRB03KT P6SM VCSH BKN030
     FM311900 29004KT 6SM -SHRA VCTS BKN030CB
     FM312100 34006KT P6SM VCSH BKN030
     FM312300 01004KT P6SM BKN035
      AMD LTD TO CLD VIS AND WIND=

USA.gov is the U.S. government's official web portal to all federal, state and local government web resources and services.